Time;durP1;ratioP1;P1;durP2;ratioP2;P2;SDS_P1;SDS_P2;PMS_P1;PMS_P2;Temp;Humidity;BMP_temperature;BMP_pressure;BME280_temperature;BME280_humidity;BME280_pressure;Samples;Min_cycle;Max_cycle;Signal;HPM_P1;HPM_P2
2023/10/05 00:01:21;;;;;;;13.13;11.57;;;;;;;;;;10063851;28;20084;-69
2023/10/05 00:06:14;;;;;;;14.85;12.88;;;;;;;;;;10061142;28;20140;-70
2023/10/05 00:11:09;;;;;;;16.30;12.77;;;;;;;;;;10062517;28;20129;-67
2023/10/05 00:16:05;;;;;;;14.60;11.95;;;;;;;;;;10058879;28;20053;-67
2023/10/05 00:20:57;;;;;;;15.57;11.10;;;;;;;;;;10052018;28;20049;-68
2023/10/05 00:25:50;;;;;;;14.68;11.13;;;;;;;;;;10061451;28;20085;-69
2023/10/05 00:30:42;;;;;;;11.95;10.70;;;;;;;;;;10059454;28;20060;-69
2023/10/05 00:35:36;;;;;;;15.05;12.52;;;;;;;;;;10061657;28;20041;-69
2023/10/05 00:40:42;;;;;;;18.55;13.48;;;;;;;;;;10052810;28;20045;-69
2023/10/05 00:45:34;;;;;;;16.25;13.60;;;;;;;;;;10058925;28;20512;-69
2023/10/05 00:50:29;;;;;;;19.73;12.88;;;;;;;;;;10060730;28;20072;-70
2023/10/05 00:55:22;;;;;;;13.73;12.00;;;;;;;;;;10060541;28;20136;-69
2023/10/05 01:00:50;;;;;;;15.07;12.63;;;;;;;;;;10058971;28;20045;-69
2023/10/05 01:05:36;;;;;;;18.42;11.35;;;;;;;;;;10052505;28;20058;-69
2023/10/05 01:10:40;;;;;;;20.67;10.35;;;;;;;;;;10059412;28;20053;-69
2023/10/05 01:15:33;;;;;;;16.27;10.55;;;;;;;;;;10058277;28;20160;-69
2023/10/05 01:20:27;;;;;;;12.68;10.73;;;;;;;;;;10060995;28;20049;-69
2023/10/05 01:25:19;;;;;;;12.82;9.70;;;;;;;;;;10057784;28;20057;-70
2023/10/05 01:30:15;;;;;;;14.23;9.98;;;;;;;;;;10059951;28;20041;-69
2023/10/05 01:35:13;;;;;;;11.35;9.45;;;;;;;;;;10052814;28;20107;-70
2023/10/05 01:40:12;;;;;;;11.60;9.47;;;;;;;;;;10067233;28;20360;-70
2023/10/05 01:45:06;;;;;;;12.02;9.45;;;;;;;;;;10058214;28;20514;-69
2023/10/05 01:49:57;;;;;;;10.30;7.97;;;;;;;;;;10066834;28;20124;-69
2023/10/05 01:54:51;;;;;;;9.43;8.07;;;;;;;;;;10063939;28;20061;-69
2023/10/05 01:59:43;;;;;;;12.32;8.23;;;;;;;;;;10062278;28;20037;-69
2023/10/05 02:04:43;;;;;;;17.05;7.88;;;;;;;;;;10056623;28;20044;-70
2023/10/05 02:09:37;;;;;;;13.02;8.60;;;;;;;;;;10066209;28;20100;-69
2023/10/05 02:14:30;;;;;;;10.27;8.15;;;;;;;;;;10065708;28;20041;-69
2023/10/05 02:19:22;;;;;;;10.80;9.20;;;;;;;;;;10065844;28;20121;-69
2023/10/05 02:24:18;;;;;;;12.38;8.70;;;;;;;;;;10067164;28;20037;-69
2023/10/05 02:29:16;;;;;;;17.95;11.40;;;;;;;;;;10064792;28;20041;-69
2023/10/05 02:34:07;;;;;;;12.90;11.50;;;;;;;;;;10065430;28;20128;-69
2023/10/05 02:39:01;;;;;;;13.30;11.18;;;;;;;;;;10064647;28;20423;-68
2023/10/05 02:43:53;;;;;;;16.77;13.00;;;;;;;;;;10044886;28;20144;-69
2023/10/05 02:48:47;;;;;;;18.58;13.23;;;;;;;;;;10066903;28;20052;-69
2023/10/05 02:53:44;;;;;;;17.33;12.10;;;;;;;;;;10068069;28;20042;-69
2023/10/05 02:58:35;;;;;;;19.73;14.05;;;;;;;;;;10069109;28;20053;-69
2023/10/05 03:03:28;;;;;;;19.52;15.85;;;;;;;;;;10060135;28;20060;-69
2023/10/05 03:08:22;;;;;;;14.75;11.73;;;;;;;;;;10068877;28;20152;-69
2023/10/05 03:13:14;;;;;;;16.00;11.80;;;;;;;;;;10061819;28;20495;-69
2023/10/05 03:18:06;;;;;;;13.05;10.88;;;;;;;;;;10064444;28;20040;-70
2023/10/05 03:22:58;;;;;;;13.05;10.88;;;;;;;;;;10063091;28;20156;-69
2023/10/05 03:27:51;;;;;;;21.05;13.00;;;;;;;;;;10063436;28;20095;-69
2023/10/05 03:32:48;;;;;;;18.52;13.35;;;;;;;;;;10061242;28;20099;-68
2023/10/05 03:37:41;;;;;;;19.02;12.50;;;;;;;;;;10064177;28;20046;-68
2023/10/05 03:42:34;;;;;;;18.98;13.18;;;;;;;;;;10062352;28;20046;-69
2023/10/05 03:47:26;;;;;;;14.55;11.20;;;;;;;;;;10063113;28;20166;-69
2023/10/05 03:52:19;;;;;;;16.75;12.65;;;;;;;;;;10057914;28;20049;-69
2023/10/05 03:57:11;;;;;;;16.67;12.88;;;;;;;;;;10063333;28;20042;-69
2023/10/05 04:02:09;;;;;;;12.55;10.70;;;;;;;;;;10058915;28;20052;-69
2023/10/05 04:07:03;;;;;;;14.90;11.70;;;;;;;;;;10060336;28;20096;-69
2023/10/05 04:11:56;;;;;;;17.85;12.63;;;;;;;;;;10063392;28;20065;-69
2023/10/05 04:16:49;;;;;;;19.45;13.70;;;;;;;;;;10054542;28;20037;-69
2023/10/05 04:21:41;;;;;;;15.10;12.27;;;;;;;;;;10066034;28;20044;-68
2023/10/05 04:26:32;;;;;;;18.13;12.73;;;;;;;;;;10066309;28;20042;-70
2023/10/05 04:31:25;;;;;;;16.00;11.93;;;;;;;;;;10065653;28;20042;-69
2023/10/05 04:36:24;;;;;;;19.63;13.27;;;;;;;;;;10064994;28;20083;-68
2023/10/05 04:41:19;;;;;;;16.95;12.57;;;;;;;;;;10065765;28;20041;-67
2023/10/05 04:46:11;;;;;;;16.05;13.73;;;;;;;;;;10064651;28;20083;-70
2023/10/05 04:51:05;;;;;;;19.63;14.15;;;;;;;;;;10064846;28;20460;-69
2023/10/05 04:56:12;;;;;;;16.08;14.20;;;;;;;;;;10065595;28;20077;-69
2023/10/05 05:10:58;;;;;;;16.42;14.30;;;;;;;;;;10068484;28;20136;-69
2023/10/05 05:15:50;;;;;;;18.15;14.35;;;;;;;;;;10072445;28;20046;-69
2023/10/05 05:20:44;;;;;;;17.00;14.48;;;;;;;;;;10056309;28;20080;-67
2023/10/05 05:25:37;;;;;;;23.13;15.90;;;;;;;;;;10050635;28;20045;-67
2023/10/05 05:30:29;;;;;;;17.80;14.13;;;;;;;;;;10063077;28;20099;-68
2023/10/05 05:35:21;;;;;;;17.48;13.25;;;;;;;;;;10060314;28;20925;-69
2023/10/05 05:40:13;;;;;;;24.40;18.33;;;;;;;;;;10063495;28;20037;-67
2023/10/05 05:45:15;;;;;;;28.17;17.98;;;;;;;;;;10064767;28;20375;-69
2023/10/05 05:50:08;;;;;;;30.17;20.90;;;;;;;;;;10054979;28;20049;-67
2023/10/05 05:55:09;;;;;;;21.67;19.38;;;;;;;;;;10064168;28;20041;-68
2023/10/05 06:00:11;;;;;;;26.60;19.67;;;;;;;;;;10062598;28;20487;-69
2023/10/05 06:05:07;;;;;;;29.30;19.85;;;;;;;;;;10060849;28;20100;-68
2023/10/05 06:09:59;;;;;;;22.77;17.33;;;;;;;;;;10063869;28;20133;-68
2023/10/05 06:14:51;;;;;;;19.60;15.57;;;;;;;;;;10060987;28;20050;-68
2023/10/05 06:19:43;;;;;;;22.83;19.00;;;;;;;;;;10062662;28;20076;-66
2023/10/05 06:24:37;;;;;;;26.25;19.75;;;;;;;;;;10062005;28;20050;-69
2023/10/05 06:29:29;;;;;;;25.27;19.85;;;;;;;;;;10062296;28;20081;-69
2023/10/05 06:34:22;;;;;;;26.42;18.58;;;;;;;;;;10062631;28;20131;-69
2023/10/05 06:39:14;;;;;;;28.40;22.20;;;;;;;;;;10062223;28;20107;-69
2023/10/05 06:44:17;;;;;;;29.70;23.25;;;;;;;;;;10062552;28;20411;-68
2023/10/05 06:49:09;;;;;;;32.58;20.90;;;;;;;;;;10061321;28;20045;-69
2023/10/05 06:54:01;;;;;;;29.88;18.75;;;;;;;;;;10057117;28;20467;-69
2023/10/05 06:58:54;;;;;;;19.58;14.77;;;;;;;;;;10057633;28;20761;-68
2023/10/05 07:03:52;;;;;;;20.20;15.43;;;;;;;;;;10057947;28;20037;-69
2023/10/05 07:08:46;;;;;;;18.15;15.25;;;;;;;;;;10060592;28;20525;-67
2023/10/05 07:13:38;;;;;;;19.85;14.25;;;;;;;;;;10061716;28;20045;-68
2023/10/05 07:18:30;;;;;;;19.42;15.50;;;;;;;;;;10061526;28;20053;-68
2023/10/05 07:23:22;;;;;;;20.20;15.95;;;;;;;;;;10059378;28;20049;-69
2023/10/05 07:28:17;;;;;;;22.83;17.25;;;;;;;;;;10062593;28;20471;-68
2023/10/05 07:33:09;;;;;;;20.23;17.05;;;;;;;;;;10058210;28;20133;-69
2023/10/05 07:38:07;;;;;;;23.02;17.10;;;;;;;;;;10057327;28;20091;-69
2023/10/05 07:42:59;;;;;;;30.33;19.15;;;;;;;;;;10059938;28;20046;-68
2023/10/05 07:47:51;;;;;;;25.05;19.20;;;;;;;;;;10060971;28;20113;-68
2023/10/05 07:52:48;;;;;;;30.80;20.75;;;;;;;;;;10059851;28;20053;-67
2023/10/05 07:57:40;;;;;;;38.65;25.88;;;;;;;;;;10058331;28;20482;-68
2023/10/05 08:02:32;;;;;;;29.52;24.75;;;;;;;;;;10057201;28;20144;-67
2023/10/05 08:07:24;;;;;;;26.27;21.63;;;;;;;;;;10055766;28;20103;-69
2023/10/05 08:12:16;;;;;;;29.27;24.30;;;;;;;;;;10059767;28;20364;-69
2023/10/05 08:17:08;;;;;;;33.53;24.02;;;;;;;;;;10058403;28;20073;-68
2023/10/05 08:22:00;;;;;;;29.05;22.50;;;;;;;;;;10055632;28;20049;-68
2023/10/05 08:26:53;;;;;;;30.25;23.92;;;;;;;;;;10059782;28;20124;-68
2023/10/05 08:31:45;;;;;;;29.58;24.38;;;;;;;;;;10047109;28;20086;-68
2023/10/05 08:36:38;;;;;;;32.92;23.58;;;;;;;;;;10059116;28;20049;-67
2023/10/05 08:41:32;;;;;;;34.58;24.77;;;;;;;;;;10059162;28;20121;-68
2023/10/05 08:46:27;;;;;;;30.48;23.27;;;;;;;;;;10063036;28;20095;-68
2023/10/05 08:51:22;;;;;;;37.70;24.80;;;;;;;;;;10057697;28;20053;-68
2023/10/05 08:56:18;;;;;;;32.50;23.75;;;;;;;;;;10065975;28;20045;-68
2023/10/05 09:01:25;;;;;;;30.25;23.90;;;;;;;;;;10060824;28;20041;-68
2023/10/05 09:06:20;;;;;;;28.27;24.95;;;;;;;;;;10062585;28;20125;-68
2023/10/05 09:11:14;;;;;;;33.90;24.27;;;;;;;;;;10062021;28;20164;-69
2023/10/05 09:16:06;;;;;;;31.67;25.88;;;;;;;;;;10059981;28;20498;-68
2023/10/05 09:20:59;;;;;;;38.22;29.58;;;;;;;;;;10063871;28;20132;-68
2023/10/05 09:25:51;;;;;;;33.35;27.45;;;;;;;;;;10060755;28;20467;-68
2023/10/05 09:30:59;;;;;;;30.85;27.00;;;;;;;;;;10065944;28;20054;-68
2023/10/05 09:36:06;;;;;;;34.15;27.45;;;;;;;;;;10067071;28;20072;-69
2023/10/05 09:41:02;;;;;;;38.03;28.92;;;;;;;;;;10063702;28;20137;-70
2023/10/05 09:45:56;;;;;;;30.55;25.20;;;;;;;;;;10064579;28;20076;-67
2023/10/05 09:50:48;;;;;;;26.25;22.92;;;;;;;;;;10059323;28;20045;-69
2023/10/05 09:55:41;;;;;;;31.88;24.35;;;;;;;;;;10047463;28;20485;-69
2023/10/05 10:05:51;;;;;;;28.02;21.45;;;;;;;;;;10064066;28;20076;-67
2023/10/05 10:10:51;;;;;;;25.58;20.70;;;;;;;;;;10055169;28;20045;-69
2023/10/05 10:15:47;;;;;;;24.17;17.30;;;;;;;;;;10060712;28;20045;-68
2023/10/05 10:20:39;;;;;;;29.48;21.83;;;;;;;;;;10057326;28;20471;-69
2023/10/05 10:25:38;;;;;;;23.90;20.52;;;;;;;;;;10064440;28;20049;-70
2023/10/05 10:30:36;;;;;;;23.38;17.73;;;;;;;;;;10062415;28;20049;-68
2023/10/05 10:35:32;;;;;;;27.05;18.33;;;;;;;;;;10061158;28;20495;-68
2023/10/05 10:45:23;;;;;;;23.23;19.50;;;;;;;;;;10059575;28;20339;-69
2023/10/05 10:50:16;;;;;;;28.23;21.40;;;;;;;;;;10058437;28;20073;-68
2023/10/05 10:55:14;;;;;;;22.40;20.08;;;;;;;;;;10053183;28;20038;-69
2023/10/05 11:05:18;;;;;;;24.50;19.42;;;;;;;;;;10060555;28;20506;-69
2023/10/05 11:10:20;;;;;;;23.00;20.48;;;;;;;;;;10061238;28;20325;-70
2023/10/05 11:15:18;;;;;;;20.35;15.90;;;;;;;;;;10059660;28;20049;-69
2023/10/05 11:20:24;;;;;;;19.65;16.63;;;;;;;;;;10060108;28;20116;-69
2023/10/05 11:25:16;;;;;;;21.58;16.58;;;;;;;;;;10061200;28;20041;-70
2023/10/05 11:30:21;;;;;;;17.63;15.75;;;;;;;;;;10048651;28;20346;-68
2023/10/05 11:35:42;;;;;;;20.13;17.13;;;;;;;;;;10058458;28;20053;-69
2023/10/05 11:40:42;;;;;;;18.33;15.45;;;;;;;;;;10059773;28;20038;-69
2023/10/05 11:45:34;;;;;;;19.05;16.55;;;;;;;;;;10051455;28;20042;-69
2023/10/05 11:50:34;;;;;;;18.58;14.20;;;;;;;;;;10059752;28;20182;-68
2023/10/05 11:55:26;;;;;;;24.55;17.33;;;;;;;;;;10051470;28;20076;-67
2023/10/05 12:00:18;;;;;;;18.45;16.55;;;;;;;;;;10060313;28;20115;-69
2023/10/05 12:05:11;;;;;;;18.38;16.20;;;;;;;;;;10057518;28;20049;-69
2023/10/05 12:10:10;;;;;;;21.05;15.02;;;;;;;;;;10050706;28;20467;-67
2023/10/05 12:15:12;;;;;;;17.95;15.02;;;;;;;;;;10056953;28;20092;-68
2023/10/05 12:20:06;;;;;;;14.30;12.60;;;;;;;;;;10057899;28;20351;-69
2023/10/05 12:24:59;;;;;;;16.45;14.75;;;;;;;;;;10057824;28;20052;-69
2023/10/05 12:29:52;;;;;;;17.85;14.43;;;;;;;;;;10046014;28;20085;-70
2023/10/05 12:34:47;;;;;;;17.95;14.82;;;;;;;;;;10056682;28;20103;-68
2023/10/05 12:39:40;;;;;;;19.05;12.40;;;;;;;;;;10048365;28;20129;-69
2023/10/05 12:44:32;;;;;;;21.70;12.52;;;;;;;;;;10058732;28;20084;-67
2023/10/05 12:49:24;;;;;;;10.38;9.00;;;;;;;;;;10056178;28;20538;-67
2023/10/05 12:54:19;;;;;;;11.75;8.43;;;;;;;;;;10057936;28;20037;-67
2023/10/05 12:59:11;;;;;;;12.05;9.65;;;;;;;;;;10058134;28;20406;-67
2023/10/05 13:04:05;;;;;;;11.98;9.52;;;;;;;;;;10058396;28;20107;-68
2023/10/05 13:09:01;;;;;;;13.18;10.38;;;;;;;;;;10049528;28;20052;-68
2023/10/05 13:13:53;;;;;;;15.68;8.82;;;;;;;;;;10057045;28;20045;-67
2023/10/05 13:18:45;;;;;;;24.20;12.27;;;;;;;;;;10056517;28;20099;-68
2023/10/05 13:23:38;;;;;;;13.35;10.35;;;;;;;;;;10046576;28;20766;-69
2023/10/05 13:28:31;;;;;;;14.55;10.52;;;;;;;;;;10041723;28;20456;-70
2023/10/05 13:33:28;;;;;;;13.27;9.88;;;;;;;;;;10051155;28;20132;-69
2023/10/05 13:38:27;;;;;;;12.45;9.88;;;;;;;;;;10058045;28;20084;-70
2023/10/05 13:43:19;;;;;;;12.18;8.75;;;;;;;;;;10050542;28;20045;-69
2023/10/05 13:48:11;;;;;;;10.70;9.05;;;;;;;;;;10057320;28;20049;-69
2023/10/05 13:53:04;;;;;;;12.90;9.10;;;;;;;;;;10056143;28;20483;-69
2023/10/05 13:57:56;;;;;;;13.02;10.93;;;;;;;;;;10058542;28;20502;-69
2023/10/05 14:02:49;;;;;;;14.80;10.48;;;;;;;;;;10056237;28;20468;-68
2023/10/05 14:07:42;;;;;;;11.35;8.43;;;;;;;;;;10063603;28;20042;-70
2023/10/05 14:12:34;;;;;;;12.40;8.35;;;;;;;;;;10061963;28;20049;-69
2023/10/05 14:17:25;;;;;;;10.05;9.00;;;;;;;;;;10065002;28;20111;-69
2023/10/05 14:22:18;;;;;;;16.20;9.60;;;;;;;;;;10059954;28;20116;-69
2023/10/05 14:27:10;;;;;;;14.40;8.63;;;;;;;;;;10060549;28;20049;-70
2023/10/05 14:32:04;;;;;;;12.90;9.55;;;;;;;;;;10056746;28;20037;-70
2023/10/05 14:36:58;;;;;;;13.45;8.82;;;;;;;;;;10053882;28;20049;-69
2023/10/05 14:42:00;;;;;;;12.65;8.73;;;;;;;;;;10055734;28;20111;-69
2023/10/05 14:46:52;;;;;;;12.57;8.38;;;;;;;;;;10056678;28;20041;-69
2023/10/05 14:51:44;;;;;;;15.20;9.25;;;;;;;;;;10056242;28;20345;-66
2023/10/05 14:56:36;;;;;;;12.23;8.77;;;;;;;;;;10057334;28;20052;-69
2023/10/05 15:01:28;;;;;;;20.17;9.75;;;;;;;;;;10057585;28;20414;-69
2023/10/05 15:06:21;;;;;;;14.45;8.85;;;;;;;;;;10062169;28;20392;-69
2023/10/05 15:11:13;;;;;;;9.43;8.52;;;;;;;;;;10060987;28;20125;-69
2023/10/05 15:16:05;;;;;;;11.63;8.95;;;;;;;;;;10060782;28;20341;-69
2023/10/05 15:20:57;;;;;;;16.63;8.55;;;;;;;;;;10054507;28;20041;-70
2023/10/05 15:25:51;;;;;;;10.90;8.57;;;;;;;;;;10054554;28;20056;-68
2023/10/05 15:30:46;;;;;;;19.05;8.95;;;;;;;;;;10052374;28;20053;-69
2023/10/05 15:35:38;;;;;;;17.67;8.20;;;;;;;;;;10059508;28;20148;-69
2023/10/05 15:40:31;;;;;;;13.60;9.27;;;;;;;;;;10066846;28;20387;-69
2023/10/05 15:45:24;;;;;;;14.10;9.52;;;;;;;;;;10064366;28;20810;-69
2023/10/05 15:50:18;;;;;;;11.70;9.45;;;;;;;;;;10061353;28;20124;-69
2023/10/05 15:55:11;;;;;;;14.88;9.07;;;;;;;;;;10051032;28;20490;-68
2023/10/05 16:00:15;;;;;;;17.33;10.73;;;;;;;;;;10049601;28;20041;-68
2023/10/05 16:05:07;;;;;;;16.65;9.68;;;;;;;;;;10052384;28;20061;-67
2023/10/05 16:10:00;;;;;;;14.30;10.18;;;;;;;;;;10061180;28;20044;-69
2023/10/05 16:14:53;;;;;;;11.18;8.82;;;;;;;;;;10057350;28;20469;-70
2023/10/05 16:19:45;;;;;;;10.82;7.40;;;;;;;;;;10060908;28;20049;-69
2023/10/05 16:24:37;;;;;;;11.00;8.45;;;;;;;;;;10059537;28;20048;-69
2023/10/05 16:29:28;;;;;;;16.73;9.90;;;;;;;;;;10059467;28;20042;-69
2023/10/05 16:34:20;;;;;;;14.35;10.68;;;;;;;;;;10058702;28;20045;-70
2023/10/05 16:39:12;;;;;;;12.00;9.73;;;;;;;;;;10057442;28;20053;-67
2023/10/05 16:44:05;;;;;;;10.75;7.60;;;;;;;;;;10059024;28;20115;-69
2023/10/05 16:48:57;;;;;;;13.70;8.55;;;;;;;;;;10057625;28;20046;-70
2023/10/05 16:53:49;;;;;;;11.55;8.45;;;;;;;;;;10059390;28;20091;-69
2023/10/05 16:58:41;;;;;;;12.88;9.02;;;;;;;;;;10056426;28;20073;-69
2023/10/05 17:03:34;;;;;;;11.88;8.75;;;;;;;;;;10056138;28;20068;-70
2023/10/05 17:08:27;;;;;;;10.85;9.73;;;;;;;;;;10060765;28;20038;-69
2023/10/05 17:13:18;;;;;;;17.20;10.80;;;;;;;;;;10061465;28;20737;-68
2023/10/05 17:18:10;;;;;;;10.80;9.52;;;;;;;;;;10062768;28;20515;-68
2023/10/05 17:23:02;;;;;;;12.35;9.27;;;;;;;;;;10065491;28;20055;-69
2023/10/05 17:27:54;;;;;;;14.05;10.15;;;;;;;;;;10057632;28;20416;-70
2023/10/05 17:32:47;;;;;;;20.25;9.95;;;;;;;;;;10064784;28;20521;-69
2023/10/05 17:37:41;;;;;;;9.80;8.60;;;;;;;;;;10066041;28;20045;-69
2023/10/05 17:42:33;;;;;;;13.68;9.32;;;;;;;;;;10066529;28;20068;-67
2023/10/05 17:47:25;;;;;;;13.77;10.82;;;;;;;;;;10064590;28;20049;-68
2023/10/05 17:52:17;;;;;;;11.80;10.30;;;;;;;;;;10064546;28;20041;-69
2023/10/05 17:57:10;;;;;;;11.57;9.48;;;;;;;;;;10063299;28;20041;-69
2023/10/05 18:02:05;;;;;;;14.15;8.82;;;;;;;;;;10062965;28;20141;-68
2023/10/05 18:06:57;;;;;;;15.00;10.73;;;;;;;;;;10066279;28;20168;-69
2023/10/05 18:11:52;;;;;;;14.93;10.05;;;;;;;;;;10062752;28;20129;-66
2023/10/05 18:16:51;;;;;;;11.98;9.95;;;;;;;;;;10060957;28;20052;-69
2023/10/05 18:21:43;;;;;;;14.63;9.13;;;;;;;;;;10065689;28;20182;-69
2023/10/05 18:26:35;;;;;;;13.80;9.23;;;;;;;;;;10064997;28;20041;-71
2023/10/05 18:31:28;;;;;;;11.38;9.45;;;;;;;;;;10064054;28;20042;-72
2023/10/05 18:36:24;;;;;;;13.13;8.40;;;;;;;;;;10066143;28;20128;-72
2023/10/05 18:41:22;;;;;;;10.02;8.55;;;;;;;;;;10066532;28;20041;-72
2023/10/05 18:46:15;;;;;;;14.77;9.77;;;;;;;;;;10064048;28;20107;-73
2023/10/05 18:51:07;;;;;;;8.65;7.70;;;;;;;;;;10066749;28;20064;-71
2023/10/05 18:55:59;;;;;;;14.40;9.38;;;;;;;;;;10063205;28;20176;-70
2023/10/05 19:00:56;;;;;;;13.23;8.30;;;;;;;;;;10066699;28;20056;-71
2023/10/05 19:05:47;;;;;;;11.02;8.40;;;;;;;;;;10063295;28;20345;-71
2023/10/05 19:10:39;;;;;;;12.57;7.43;;;;;;;;;;10064356;28;20037;-71
2023/10/05 19:15:33;;;;;;;13.60;7.57;;;;;;;;;;10065473;28;20472;-72
2023/10/05 19:20:25;;;;;;;9.10;7.60;;;;;;;;;;10065778;28;20049;-72
2023/10/05 19:25:17;;;;;;;14.50;8.88;;;;;;;;;;10053164;28;20045;-72
2023/10/05 19:30:13;;;;;;;12.07;8.10;;;;;;;;;;10068174;28;20048;-72
2023/10/05 19:35:05;;;;;;;7.43;6.70;;;;;;;;;;10067195;28;20135;-72
2023/10/05 19:39:57;;;;;;;13.20;8.18;;;;;;;;;;10067157;28;20061;-72
2023/10/05 19:44:49;;;;;;;14.90;7.90;;;;;;;;;;10067857;28;20041;-71
2023/10/05 19:49:41;;;;;;;8.88;7.70;;;;;;;;;;10066702;28;20041;-72
2023/10/05 19:54:34;;;;;;;8.90;6.93;;;;;;;;;;10066745;28;20488;-72
2023/10/05 19:59:25;;;;;;;10.27;7.85;;;;;;;;;;10067322;28;20092;-72
2023/10/05 20:04:17;;;;;;;10.13;8.18;;;;;;;;;;10066304;28;20049;-72
2023/10/05 20:09:13;;;;;;;13.40;7.57;;;;;;;;;;10065379;28;20432;-73
2023/10/05 20:14:08;;;;;;;8.50;5.65;;;;;;;;;;10066867;28;20132;-73
2023/10/05 20:19:00;;;;;;;12.82;7.55;;;;;;;;;;10064691;28;20045;-73
2023/10/05 20:23:52;;;;;;;10.93;7.07;;;;;;;;;;10065926;28;20125;-72
2023/10/05 20:28:44;;;;;;;16.67;7.85;;;;;;;;;;10065649;28;20064;-73
2023/10/05 20:33:36;;;;;;;12.05;6.70;;;;;;;;;;10066193;28;20037;-71
2023/10/05 20:38:28;;;;;;;11.25;6.35;;;;;;;;;;10065774;28;20045;-73
2023/10/05 20:43:19;;;;;;;10.40;6.53;;;;;;;;;;10064720;28;20050;-73
2023/10/05 20:48:12;;;;;;;11.02;6.95;;;;;;;;;;10065703;28;20046;-73
2023/10/05 20:53:05;;;;;;;11.40;6.97;;;;;;;;;;10064967;28;20046;-72
2023/10/05 20:57:57;;;;;;;6.65;5.95;;;;;;;;;;10065682;28;20072;-73
2023/10/05 21:02:50;;;;;;;11.88;7.53;;;;;;;;;;10064774;28;20050;-72
2023/10/05 21:07:42;;;;;;;9.30;7.20;;;;;;;;;;10065169;28;20168;-72
2023/10/05 21:12:34;;;;;;;9.45;7.38;;;;;;;;;;10065357;28;20135;-74
2023/10/05 21:17:27;;;;;;;10.40;6.38;;;;;;;;;;10065003;28;20048;-73
2023/10/05 21:22:19;;;;;;;11.15;7.65;;;;;;;;;;10065230;28;20523;-73
2023/10/05 21:27:12;;;;;;;8.50;7.60;;;;;;;;;;10064514;28;20150;-72
2023/10/05 21:32:04;;;;;;;11.82;9.23;;;;;;;;;;10065259;28;20045;-73
2023/10/05 21:36:56;;;;;;;11.68;10.05;;;;;;;;;;10064929;28;20052;-73
2023/10/05 21:41:48;;;;;;;12.73;11.00;;;;;;;;;;10065055;28;20048;-72
2023/10/05 21:46:40;;;;;;;14.10;12.48;;;;;;;;;;10064521;28;20052;-73
2023/10/05 21:51:32;;;;;;;18.48;12.68;;;;;;;;;;10065737;28;20049;-73
2023/10/05 21:56:24;;;;;;;13.32;11.93;;;;;;;;;;10071234;28;20053;-72
2023/10/05 22:01:21;;;;;;;13.88;12.27;;;;;;;;;;10071487;28;20541;-72
2023/10/05 22:06:15;;;;;;;16.02;11.80;;;;;;;;;;10070081;28;20041;-73
2023/10/05 22:11:10;;;;;;;13.57;12.18;;;;;;;;;;10070601;28;20095;-73
2023/10/05 22:16:02;;;;;;;13.93;11.02;;;;;;;;;;10071207;28;20029;-73
2023/10/05 22:20:54;;;;;;;11.70;10.43;;;;;;;;;;10070772;28;20041;-72
2023/10/05 22:25:46;;;;;;;11.73;9.93;;;;;;;;;;10070314;28;20046;-72
2023/10/05 22:30:38;;;;;;;20.10;12.43;;;;;;;;;;10070003;28;20472;-72
2023/10/05 22:35:33;;;;;;;17.77;12.90;;;;;;;;;;10070303;28;20069;-72
2023/10/05 22:40:25;;;;;;;21.33;12.82;;;;;;;;;;10069610;28;20077;-73
2023/10/05 22:45:17;;;;;;;20.20;13.32;;;;;;;;;;10070072;28;20112;-72
2023/10/05 22:50:09;;;;;;;16.38;13.10;;;;;;;;;;10069017;28;20045;-73
2023/10/05 22:55:00;;;;;;;13.52;11.80;;;;;;;;;;10069585;28;20052;-72
2023/10/05 22:59:52;;;;;;;14.10;11.07;;;;;;;;;;10069659;28;20072;-72
2023/10/05 23:04:45;;;;;;;18.58;11.80;;;;;;;;;;10067717;28;20057;-71
2023/10/05 23:09:37;;;;;;;14.60;11.65;;;;;;;;;;10069208;28;20045;-71
2023/10/05 23:14:29;;;;;;;13.75;12.27;;;;;;;;;;10069388;28;20049;-71
2023/10/05 23:19:21;;;;;;;12.63;10.55;;;;;;;;;;10068269;28;20049;-73
2023/10/05 23:24:13;;;;;;;12.65;11.20;;;;;;;;;;10068836;28;20459;-71
2023/10/05 23:29:08;;;;;;;13.95;12.52;;;;;;;;;;10062279;28;20533;-73
2023/10/05 23:34:01;;;;;;;16.20;13.07;;;;;;;;;;10060687;28;20045;-72
2023/10/05 23:38:58;;;;;;;14.90;13.32;;;;;;;;;;10064512;28;20103;-71
2023/10/05 23:43:50;;;;;;;16.92;12.93;;;;;;;;;;10064497;28;20124;-71
2023/10/05 23:48:41;;;;;;;18.58;13.20;;;;;;;;;;10061992;28;20050;-71
2023/10/05 23:53:33;;;;;;;17.08;12.88;;;;;;;;;;10063941;28;20054;-73
2023/10/05 23:58:26;;;;;;;16.08;12.07;;;;;;;;;;10063253;28;20041;-72
